createdAt,value
2018-01-31T01:52:20.475Z,71.43
2018-01-31T01:52:53.122Z,82.68
2018-01-31T01:55:22.960Z,83.13
2018-01-31T01:57:53.022Z,83.41
2018-01-31T02:00:22.905Z,84.17
2018-01-31T02:02:53.130Z,84.57
2018-01-31T02:05:23.130Z,84.50
2018-01-31T02:07:53.154Z,84.45
2018-01-31T02:10:23.076Z,84.69
2018-01-31T02:12:53.135Z,85.06
2018-01-31T02:15:24.169Z,85.00
2018-01-31T02:17:54.884Z,85.47
2018-01-31T02:20:24.789Z,85.56
2018-01-31T02:22:54.802Z,85.52
2018-01-31T02:25:31.312Z,85.94
2018-01-31T02:28:01.921Z,86.36
2018-01-31T02:30:31.903Z,86.35
2018-01-31T02:33:01.870Z,86.43
2018-01-31T02:35:32.574Z,86.64
2018-01-31T02:38:02.486Z,87.00
2018-01-31T02:40:32.473Z,87.09
2018-01-31T02:43:02.340Z,87.05
2018-01-31T02:45:32.203Z,87.43
2018-01-31T02:48:02.230Z,87.15
2018-01-31T02:50:32.277Z,86.98
2018-01-31T02:53:02.392Z,87.04
2018-01-31T02:55:32.310Z,87.62
2018-01-31T02:58:02.190Z,87.70
2018-01-31T03:00:32.077Z,87.50
2018-01-31T03:03:02.672Z,87.61
2018-01-31T03:05:32.593Z,87.51
2018-01-31T03:08:02.499Z,87.96
2018-01-31T03:10:32.386Z,87.84
2018-01-31T03:13:02.342Z,87.85
2018-01-31T03:15:32.220Z,87.92
2018-01-31T03:18:02.430Z,87.85
2018-01-31T03:20:32.306Z,87.84
2018-01-31T03:23:02.937Z,87.89
2018-01-31T03:25:33.643Z,88.11
2018-01-31T03:28:03.760Z,88.00
2018-01-31T03:30:33.576Z,88.02
2018-01-31T03:33:03.713Z,88.07
2018-01-31T03:35:33.588Z,88.39
2018-01-31T03:38:03.405Z,88.26
2018-01-31T03:40:33.173Z,88.68
2018-01-31T03:43:04.657Z,88.53
2018-01-31T03:45:34.522Z,88.87
2018-01-31T03:48:04.394Z,88.80
2018-01-31T03:50:34.374Z,88.62
2018-01-31T03:53:05.058Z,88.93
2018-01-31T03:55:34.971Z,89.23
2018-01-31T03:58:04.841Z,89.23
2018-01-31T04:00:35.411Z,89.04
2018-01-31T04:03:05.234Z,89.12
2018-01-31T04:05:35.121Z,89.33
2018-01-31T04:08:04.937Z,89.63
2018-01-31T04:10:34.790Z,89.74
2018-01-31T04:13:04.600Z,89.46
2018-01-31T04:15:34.625Z,89.15
2018-01-31T04:18:04.629Z,89.31
2018-01-31T04:20:34.598Z,89.15
2018-01-31T04:23:05.309Z,89.12
2018-01-31T04:25:36.030Z,89.24
2018-01-31T04:28:05.886Z,88.97
2018-01-31T04:30:35.762Z,88.99
2018-01-31T04:33:05.648Z,88.96
2018-01-31T04:35:35.868Z,88.93
2018-01-31T04:38:05.744Z,88.66
2018-01-31T04:40:35.621Z,88.88
2018-01-31T04:43:05.613Z,88.71
2018-01-31T04:45:36.439Z,88.59
2018-01-31T04:48:06.334Z,88.67
2018-01-31T04:50:36.233Z,88.49
2018-01-31T04:53:06.188Z,88.78
2018-01-31T04:55:36.067Z,88.94
2018-01-31T04:58:06.730Z,88.58
2018-01-31T05:00:36.819Z,88.46
2018-01-31T05:03:06.573Z,88.02
2018-01-31T05:05:36.356Z,87.82
2018-01-31T05:08:06.265Z,87.74
2018-01-31T05:10:37.397Z,87.94
2018-01-31T05:13:08.219Z,87.67
2018-01-31T05:15:39.410Z,87.81
2018-01-31T05:18:10.862Z,87.68
2018-01-31T05:20:41.850Z,87.20
2018-01-31T05:23:11.838Z,87.46
2018-01-31T05:25:41.780Z,87.08
2018-01-31T05:28:11.516Z,87.02
2018-01-31T05:30:41.636Z,87.01
2018-01-31T05:33:11.544Z,87.21
2018-01-31T05:35:41.361Z,87.46
2018-01-31T05:38:12.329Z,87.83
2018-01-31T05:40:42.904Z,87.75
2018-01-31T05:43:13.003Z,87.81
2018-01-31T05:45:42.819Z,87.71
2018-01-31T05:48:12.678Z,87.47
2018-01-31T05:50:42.557Z,87.52
2018-01-31T05:53:12.669Z,87.80
2018-01-31T05:55:42.495Z,87.66
2018-01-31T05:58:12.325Z,87.68
2018-01-31T06:00:42.156Z,87.49
2018-01-31T06:03:12.071Z,87.34
2018-01-31T06:05:41.962Z,87.28
2018-01-31T06:08:12.004Z,87.56
2018-01-31T06:10:41.919Z,87.39
2018-01-31T06:13:11.900Z,87.46
2018-01-31T06:15:41.815Z,87.44
2018-01-31T06:18:11.774Z,87.50
2018-01-31T06:20:41.797Z,87.87
2018-01-31T06:23:12.517Z,87.57
2018-01-31T06:25:42.383Z,87.64
2018-01-31T06:28:12.436Z,87.60
2018-01-31T06:30:42.204Z,87.52
2018-01-31T06:33:12.956Z,87.58
2018-01-31T06:35:43.301Z,87.76
2018-01-31T06:38:13.402Z,87.90
2018-01-31T06:40:43.553Z,87.80
2018-01-31T06:43:13.443Z,87.49
2018-01-31T06:45:43.442Z,87.54
2018-01-31T06:48:13.377Z,87.47
2018-01-31T06:50:43.241Z,87.31
2018-01-31T06:53:13.217Z,87.22
2018-01-31T06:55:43.561Z,87.09
2018-01-31T06:58:13.713Z,86.93
2018-01-31T07:00:44.436Z,86.95
2018-01-31T07:03:15.272Z,87.07
2018-01-31T07:05:46.036Z,86.84
2018-01-31T07:08:16.005Z,86.93
2018-01-31T07:10:45.802Z,86.87
2018-01-31T07:13:15.635Z,86.68
2018-01-31T07:15:45.517Z,86.76
2018-01-31T07:18:15.497Z,86.85
2018-01-31T07:20:46.368Z,86.90
2018-01-31T07:23:16.190Z,86.78
2018-01-31T07:25:45.969Z,86.99
2018-01-31T07:28:15.937Z,86.65
2018-01-31T07:30:45.872Z,86.74
2018-01-31T07:33:15.869Z,86.18
2018-01-31T07:35:45.770Z,86.21
2018-01-31T07:38:15.709Z,85.63
2018-01-31T07:40:45.600Z,85.75
2018-01-31T07:43:15.830Z,85.55
2018-01-31T07:45:45.846Z,85.31
2018-01-31T07:48:15.760Z,85.35
2018-01-31T07:50:45.574Z,85.12
2018-01-31T07:53:15.545Z,85.63
2018-01-31T07:55:46.386Z,85.65
2018-01-31T07:58:16.972Z,85.63
2018-01-31T08:00:46.864Z,85.80
2018-01-31T08:03:16.766Z,85.87
2018-01-31T08:05:46.763Z,85.83
2018-01-31T08:08:17.455Z,85.32
2018-01-31T08:10:47.557Z,85.54
2018-01-31T08:13:17.593Z,85.50
2018-01-31T08:15:47.514Z,85.48
2018-01-31T08:18:17.648Z,85.34
2018-01-31T08:20:48.481Z,84.70
2018-01-31T08:23:18.641Z,84.58
2018-01-31T08:25:48.641Z,84.86
2018-01-31T08:28:18.786Z,84.37
2018-01-31T08:30:48.613Z,83.91
2018-01-31T08:33:18.713Z,83.95
2018-01-31T08:35:48.854Z,83.63
2018-01-31T08:38:18.788Z,83.72
2018-01-31T08:40:48.826Z,84.11
2018-01-31T08:43:18.740Z,83.99
2018-01-31T08:45:48.988Z,83.71
2018-01-31T08:48:19.631Z,83.63
2018-01-31T08:50:50.576Z,83.49
2018-01-31T08:53:21.609Z,83.18
2018-01-31T08:55:52.427Z,83.34
2018-01-31T08:58:22.305Z,82.51
2018-01-31T09:00:52.487Z,82.66
2018-01-31T09:03:23.051Z,82.06
2018-01-31T09:05:53.256Z,82.04
2018-01-31T09:08:23.168Z,81.16
2018-01-31T09:10:53.303Z,81.54
2018-01-31T09:13:23.115Z,81.11
2018-01-31T09:15:53.917Z,81.00
2018-01-31T09:18:24.613Z,80.64
2018-01-31T09:20:54.511Z,80.66
2018-01-31T09:23:24.526Z,80.47
2018-01-31T09:25:54.503Z,80.28
2018-01-31T09:28:25.847Z,80.06
2018-01-31T09:30:56.597Z,80.01
2018-01-31T09:33:27.475Z,79.86
2018-01-31T09:35:57.607Z,79.53
2018-01-31T09:38:27.943Z,79.63
2018-01-31T09:40:58.211Z,80.01
2018-01-31T09:43:28.159Z,79.37
2018-01-31T09:45:58.215Z,79.62
2018-01-31T09:48:28.319Z,79.14
2018-01-31T09:50:58.688Z,79.46
2018-01-31T09:53:28.707Z,78.95
2018-01-31T09:56:01.453Z,79.48
2018-01-31T09:58:31.366Z,80.07
2018-01-31T10:01:01.791Z,81.08
2018-01-31T10:03:31.930Z,81.27
2018-01-31T10:06:02.905Z,81.79
2018-01-31T10:08:32.877Z,81.73
2018-01-31T10:11:02.949Z,81.44
2018-01-31T10:13:32.736Z,80.89
2018-01-31T10:16:02.581Z,81.09
2018-01-31T10:18:32.661Z,81.16
2018-01-31T10:21:03.510Z,80.89
2018-01-31T10:23:33.698Z,81.06
2018-01-31T10:26:04.436Z,80.85
2018-01-31T10:28:34.212Z,81.34
2018-01-31T10:31:04.308Z,82.12
2018-01-31T10:33:35.045Z,82.07
2018-01-31T10:36:05.001Z,82.50
2018-01-31T10:38:34.950Z,82.51
2018-01-31T10:44:05.151Z,82.75
2018-01-31T10:46:35.110Z,82.06
2018-01-31T10:49:05.230Z,82.05
2018-01-31T10:51:35.801Z,81.73
2018-01-31T10:59:06.946Z,82.08
2018-01-31T11:01:38.043Z,81.89
2018-01-31T11:04:08.637Z,81.67
2018-01-31T11:06:38.728Z,81.57
2018-01-31T11:09:09.101Z,81.06
2018-01-31T11:11:39.649Z,80.99
2018-01-31T11:14:09.554Z,80.93
2018-01-31T11:16:40.296Z,81.21
2018-01-31T11:19:10.780Z,80.92
2018-01-31T11:21:41.341Z,81.48
2018-01-31T11:24:11.512Z,81.33
2018-01-31T11:26:41.557Z,81.28
2018-01-31T11:29:11.596Z,81.33
2018-01-31T11:31:41.422Z,81.74
2018-01-31T11:34:11.491Z,81.79
2018-01-31T11:36:42.089Z,81.70
2018-01-31T11:39:12.160Z,81.65
2018-01-31T11:41:42.693Z,81.54
2018-01-31T11:44:13.267Z,81.39
2018-01-31T11:46:43.214Z,81.12
2018-01-31T11:49:13.914Z,80.99
2018-01-31T11:51:43.869Z,81.00
2018-01-31T11:54:14.457Z,80.71
2018-01-31T11:56:44.436Z,80.40
2018-01-31T11:59:14.403Z,80.26
2018-01-31T12:01:44.689Z,80.08
2018-01-31T12:04:14.453Z,79.76
2018-01-31T12:06:44.605Z,79.41
2018-01-31T12:09:27.760Z,79.08
2018-01-31T12:11:58.315Z,78.50
2018-01-31T12:15:34.402Z,78.72
2018-01-31T12:18:04.278Z,78.64
2018-01-31T12:21:45.870Z,79.86
2018-01-31T12:24:33.261Z,81.12
2018-01-31T12:28:26.455Z,81.99
2018-01-31T12:31:09.679Z,82.34
2018-01-31T12:34:55.171Z,81.56
2018-01-31T12:39:42.545Z,82.13
2018-01-31T12:42:10.440Z,82.05
2018-01-31T12:44:39.121Z,82.23
2018-01-31T12:47:26.465Z,82.14
2018-01-31T12:51:43.309Z,82.44
2018-01-31T12:54:41.738Z,82.37
2018-01-31T12:57:42.229Z,81.30
2018-01-31T13:00:58.648Z,79.10
2018-01-31T13:05:13.368Z,80.50
2018-01-31T13:08:00.972Z,81.74
2018-01-31T13:12:45.116Z,82.19
2018-01-31T13:15:46.910Z,82.58
2018-01-31T13:18:31.244Z,81.90
2018-01-31T13:21:17.925Z,82.20
2018-01-31T13:24:01.224Z,81.51
2018-01-31T13:26:42.605Z,80.97
2018-01-31T13:29:24.636Z,80.87
2018-01-31T13:33:14.895Z,80.89
2018-01-31T13:36:59.319Z,80.28
2018-01-31T13:41:48.415Z,80.54
2018-01-31T13:44:35.375Z,80.59
2018-01-31T13:48:26.997Z,81.06
2018-01-31T13:51:21.579Z,80.94
2018-01-31T13:54:09.368Z,81.20
2018-01-31T13:56:56.061Z,81.37
2018-01-31T14:02:43.171Z,81.83
2018-01-31T14:05:29.813Z,81.76
2018-01-31T14:09:17.102Z,81.98
2018-01-31T14:13:01.469Z,82.36
2018-01-31T14:17:49.878Z,82.68
2018-01-31T14:21:36.138Z,82.36
2018-01-31T14:26:24.835Z,80.69
2018-01-31T14:30:11.051Z,81.46
2018-01-31T14:34:00.341Z,81.45
2018-01-31T14:36:28.646Z,80.40
2018-01-31T14:38:56.601Z,79.36
2018-01-31T14:41:24.618Z,78.80
2018-01-31T14:43:52.606Z,77.99
2018-01-31T14:46:20.721Z,78.01
2018-01-31T14:48:48.773Z,77.86
2018-01-31T14:51:17.112Z,78.25
2018-01-31T14:53:45.237Z,78.64
2018-01-31T14:56:13.288Z,78.07
2018-01-31T14:58:41.381Z,78.08
2018-01-31T15:01:10.356Z,77.26
2018-01-31T15:03:38.326Z,77.61
2018-01-31T15:06:06.330Z,77.67
2018-01-31T15:08:34.455Z,77.29
2018-01-31T15:11:02.569Z,77.18
2018-01-31T15:13:30.718Z,75.04
2018-01-31T15:15:59.229Z,75.61
2018-01-31T15:18:27.360Z,76.78
2018-01-31T15:20:55.610Z,75.87
2018-01-31T15:23:23.730Z,76.08
2018-01-31T15:25:51.929Z,75.59
2018-01-31T15:28:20.173Z,75.69
2018-01-31T15:30:48.225Z,75.87
2018-01-31T15:33:16.229Z,75.32
2018-01-31T15:35:44.125Z,75.30
2018-01-31T15:38:12.079Z,75.18
2018-01-31T15:40:39.982Z,75.54
2018-01-31T15:43:08.646Z,74.89
2018-01-31T15:45:36.617Z,75.30
2018-01-31T15:48:04.536Z,75.31
2018-01-31T15:50:32.454Z,75.59
2018-01-31T15:53:01.265Z,75.83
2018-01-31T15:55:29.965Z,75.30
2018-01-31T15:57:57.846Z,75.12
2018-01-31T16:00:25.792Z,75.69
2018-01-31T16:02:53.870Z,74.81
2018-01-31T16:05:22.526Z,75.19
2018-01-31T16:07:50.453Z,75.32
2018-01-31T16:10:18.416Z,74.78
2018-01-31T16:12:46.361Z,74.92
2018-01-31T16:15:14.449Z,75.20
2018-01-31T16:17:45.106Z,75.70
2018-01-31T16:21:24.450Z,76.08
2018-01-31T16:23:54.563Z,76.56
2018-01-31T16:26:25.373Z,75.55
2018-01-31T16:29:08.455Z,75.81
2018-01-31T16:32:58.196Z,76.24
2018-01-31T16:35:28.780Z,77.02
2018-01-31T16:37:58.849Z,76.78
2018-01-31T16:40:29.655Z,76.69
2018-01-31T16:42:59.612Z,75.14
2018-01-31T16:45:29.504Z,74.93
2018-01-31T16:47:59.695Z,73.92
2018-01-31T16:50:29.722Z,74.73
2018-01-31T16:52:59.717Z,73.30
2018-01-31T16:55:29.688Z,73.78
2018-01-31T16:57:59.465Z,73.87
2018-01-31T17:00:29.433Z,74.26
2018-01-31T17:03:00.313Z,74.05
2018-01-31T17:05:30.513Z,73.98
2018-01-31T17:08:00.397Z,74.82
2018-01-31T17:10:31.087Z,76.18
2018-01-31T17:13:01.145Z,76.54
2018-01-31T17:15:31.084Z,76.93
2018-01-31T17:18:01.138Z,76.19
2018-01-31T17:20:31.311Z,76.06
2018-01-31T17:23:02.020Z,76.94
2018-01-31T17:25:32.652Z,76.98
2018-01-31T17:28:02.665Z,77.15
2018-01-31T17:30:32.597Z,77.43
2018-01-31T17:33:03.211Z,77.72
2018-01-31T17:35:34.006Z,77.81
2018-01-31T17:38:04.160Z,77.69
2018-01-31T17:40:34.039Z,78.26
2018-01-31T17:43:04.071Z,78.12
2018-01-31T17:45:34.019Z,77.71
2018-01-31T17:48:03.855Z,76.50
2018-01-31T17:50:34.859Z,77.26
2018-01-31T17:53:05.021Z,76.99
2018-01-31T17:55:35.705Z,76.89
2018-01-31T17:58:05.528Z,77.12
2018-01-31T18:00:35.594Z,76.99
2018-01-31T18:03:05.480Z,77.21
2018-01-31T18:05:35.530Z,77.57
2018-01-31T18:08:05.671Z,77.23
2018-01-31T18:10:36.502Z,76.43
2018-01-31T18:13:07.355Z,76.73
2018-01-31T18:15:38.076Z,76.66
2018-01-31T18:18:08.805Z,76.37
2018-01-31T18:20:39.735Z,76.74
2018-01-31T18:23:09.667Z,76.98
2018-01-31T18:25:40.357Z,76.43
2018-01-31T18:28:10.459Z,76.11
2018-01-31T18:30:41.081Z,75.99
2018-01-31T18:33:11.327Z,76.22
2018-01-31T18:35:41.269Z,76.60
2018-01-31T18:38:11.276Z,76.16
2018-01-31T18:40:41.436Z,76.65
2018-01-31T18:43:11.394Z,76.43
2018-01-31T18:45:41.728Z,76.77
2018-01-31T18:48:11.885Z,76.90
2018-01-31T18:50:41.958Z,76.09
2018-01-31T18:53:11.762Z,77.26
2018-01-31T18:55:41.818Z,77.15
2018-01-31T18:58:11.756Z,76.72
2018-01-31T19:00:43.209Z,76.70
2018-01-31T19:03:13.234Z,76.30
2018-01-31T19:05:43.075Z,76.63
2018-01-31T19:08:12.964Z,76.58
2018-01-31T19:10:42.955Z,77.03
2018-01-31T19:13:12.853Z,75.87
2018-01-31T19:15:43.119Z,76.59
2018-01-31T19:18:12.958Z,76.45
2018-01-31T19:20:43.694Z,76.32
2018-01-31T19:23:14.318Z,76.17
2018-01-31T19:25:45.094Z,76.43
2018-01-31T19:28:15.022Z,76.48
2018-01-31T19:30:45.085Z,76.46
2018-01-31T19:33:16.668Z,76.65
2018-01-31T19:35:46.701Z,76.94
2018-01-31T19:38:16.714Z,77.05
2018-01-31T19:40:47.664Z,77.56
2018-01-31T19:43:17.721Z,77.48
2018-01-31T19:45:48.490Z,77.15
2018-01-31T19:48:19.075Z,77.21
2018-01-31T19:50:48.963Z,76.95
2018-01-31T19:53:19.117Z,77.61
2018-01-31T19:55:49.254Z,77.84
2018-01-31T19:58:19.253Z,78.29
2018-01-31T20:00:49.183Z,78.55
2018-01-31T20:03:19.192Z,78.66
2018-01-31T20:05:49.169Z,78.87
2018-01-31T20:08:19.141Z,78.48
2018-01-31T20:10:49.207Z,78.35
2018-01-31T20:13:19.422Z,78.35
2018-01-31T20:15:50.366Z,78.29
2018-01-31T20:18:20.516Z,77.76
2018-01-31T20:20:51.034Z,78.02
2018-01-31T20:23:20.970Z,78.37
2018-01-31T20:25:50.805Z,78.30
2018-01-31T20:28:20.884Z,78.38
2018-01-31T20:30:50.830Z,78.76
2018-01-31T20:33:20.720Z,78.90
2018-01-31T20:35:51.615Z,78.69
2018-01-31T20:38:21.580Z,78.08
2018-01-31T20:40:51.522Z,78.88
2018-01-31T20:43:21.655Z,78.55
2018-01-31T20:45:51.900Z,77.80
2018-01-31T20:48:22.525Z,77.93
2018-01-31T20:50:52.484Z,77.96
2018-01-31T20:53:22.535Z,77.76
2018-01-31T20:55:52.603Z,77.80
2018-01-31T20:58:24.671Z,77.88
2018-01-31T21:00:54.753Z,77.26
2018-01-31T21:03:25.553Z,77.27
2018-01-31T21:05:55.555Z,77.70
2018-01-31T21:08:26.280Z,78.03
2018-01-31T21:10:57.511Z,77.68
2018-01-31T21:13:27.437Z,77.22
2018-01-31T21:15:58.254Z,76.90
2018-01-31T21:18:28.191Z,77.30
2018-01-31T21:20:58.728Z,77.28
2018-01-31T21:23:28.864Z,77.16
2018-01-31T21:25:59.805Z,76.94
2018-01-31T21:28:29.895Z,76.38
2018-01-31T21:30:59.739Z,75.65
2018-01-31T21:33:29.725Z,75.60
2018-01-31T21:35:59.655Z,75.81
2018-01-31T21:38:29.550Z,75.91
2018-01-31T21:40:59.895Z,75.87
2018-01-31T21:43:29.929Z,75.86
2018-01-31T21:45:59.962Z,76.02
2018-01-31T21:48:29.875Z,76.66
2018-01-31T21:50:59.722Z,76.18
2018-01-31T21:53:29.792Z,76.52
2018-01-31T21:55:59.937Z,76.22
2018-01-31T21:58:29.725Z,76.21
2018-01-31T22:01:00.660Z,76.24
2018-01-31T22:03:30.618Z,75.39
2018-01-31T22:06:00.594Z,75.03
2018-01-31T22:08:30.529Z,75.36
2018-01-31T22:11:00.450Z,75.42
2018-01-31T22:13:31.916Z,75.79
2018-01-31T22:16:03.033Z,75.64
2018-01-31T22:18:32.924Z,74.90
2018-01-31T22:21:02.876Z,75.14
2018-01-31T22:23:32.755Z,75.07
2018-01-31T22:26:03.034Z,75.18
2018-01-31T22:28:34.120Z,75.05
2018-01-31T22:31:04.598Z,75.09
2018-01-31T22:33:34.481Z,75.35
2018-01-31T22:36:04.760Z,74.95
2018-01-31T22:38:35.412Z,75.26
2018-01-31T22:41:05.258Z,75.39
2018-01-31T22:43:35.621Z,75.22
2018-01-31T22:46:06.033Z,74.31
2018-01-31T22:48:36.250Z,74.16
2018-01-31T22:51:06.345Z,74.06
2018-01-31T22:53:36.723Z,73.76
2018-01-31T22:56:06.941Z,74.13
2018-01-31T22:58:37.939Z,74.11
2018-01-31T23:01:08.203Z,73.58
2018-01-31T23:03:39.381Z,74.07
2018-01-31T23:06:09.513Z,73.63
2018-01-31T23:08:39.465Z,73.62
2018-01-31T23:11:10.309Z,74.11
2018-01-31T23:13:46.208Z,73.62
2018-01-31T23:16:16.722Z,73.09
2018-01-31T23:18:47.373Z,73.33
2018-01-31T23:21:17.758Z,73.44
2018-01-31T23:23:47.922Z,73.35
2018-01-31T23:26:18.383Z,73.28
2018-01-31T23:28:48.566Z,72.71
2018-01-31T23:31:18.650Z,73.38
2018-01-31T23:33:49.805Z,72.66
2018-01-31T23:36:21.187Z,72.87
2018-01-31T23:38:51.492Z,72.80
2018-01-31T23:41:22.153Z,72.40
2018-01-31T23:43:52.742Z,72.63
2018-01-31T23:46:23.321Z,72.76
2018-01-31T23:48:53.777Z,72.91
2018-01-31T23:51:23.988Z,72.54
2018-01-31T23:53:54.700Z,72.27
2018-01-31T23:56:25.033Z,72.07
2018-01-31T23:58:55.372Z,72.54
